sensor_id;sensor_type;location;lat;lon;timestamp;P1;durP1;ratioP1;P2;durP2;ratioP2
60169;SDS011;46042;49.444;6.862;2023-05-21T00:00:48;19.85;;;12.25;;
60169;SDS011;46042;49.444;6.862;2023-05-21T00:03:16;22.85;;;12.55;;
60169;SDS011;46042;49.444;6.862;2023-05-21T00:05:43;21.13;;;12.05;;
60169;SDS011;46042;49.444;6.862;2023-05-21T00:08:12;16.92;;;10.70;;
60169;SDS011;46042;49.444;6.862;2023-05-21T00:10:39;21.15;;;11.35;;
60169;SDS011;46042;49.444;6.862;2023-05-21T00:13:06;21.60;;;12.43;;
60169;SDS011;46042;49.444;6.862;2023-05-21T00:15:34;19.98;;;10.70;;
60169;SDS011;46042;49.444;6.862;2023-05-21T00:18:01;18.27;;;11.98;;
60169;SDS011;46042;49.444;6.862;2023-05-21T00:20:29;21.60;;;12.07;;
60169;SDS011;46042;49.444;6.862;2023-05-21T00:22:57;19.50;;;11.38;;
60169;SDS011;46042;49.444;6.862;2023-05-21T00:25:24;18.48;;;11.98;;
60169;SDS011;46042;49.444;6.862;2023-05-21T00:27:51;18.83;;;11.70;;
60169;SDS011;46042;49.444;6.862;2023-05-21T00:30:19;22.45;;;12.15;;
60169;SDS011;46042;49.444;6.862;2023-05-21T00:32:46;18.63;;;12.23;;
60169;SDS011;46042;49.444;6.862;2023-05-21T00:35:13;22.63;;;12.88;;
60169;SDS011;46042;49.444;6.862;2023-05-21T00:37:39;18.95;;;11.68;;
60169;SDS011;46042;49.444;6.862;2023-05-21T00:40:06;22.48;;;11.77;;
60169;SDS011;46042;49.444;6.862;2023-05-21T00:42:34;23.65;;;12.93;;
60169;SDS011;46042;49.444;6.862;2023-05-21T00:45:05;23.80;;;12.80;;
60169;SDS011;46042;49.444;6.862;2023-05-21T00:47:33;23.30;;;14.70;;
60169;SDS011;46042;49.444;6.862;2023-05-21T00:50:01;22.98;;;13.63;;
60169;SDS011;46042;49.444;6.862;2023-05-21T00:52:29;26.40;;;15.07;;
60169;SDS011;46042;49.444;6.862;2023-05-21T00:54:56;19.10;;;13.02;;
60169;SDS011;46042;49.444;6.862;2023-05-21T00:57:24;21.92;;;13.75;;
60169;SDS011;46042;49.444;6.862;2023-05-21T00:59:52;23.90;;;12.73;;
60169;SDS011;46042;49.444;6.862;2023-05-21T01:02:19;20.88;;;13.02;;
60169;SDS011;46042;49.444;6.862;2023-05-21T01:04:49;19.95;;;11.63;;
60169;SDS011;46042;49.444;6.862;2023-05-21T01:07:19;21.60;;;13.07;;
60169;SDS011;46042;49.444;6.862;2023-05-21T01:09:46;20.02;;;13.63;;
60169;SDS011;46042;49.444;6.862;2023-05-21T01:12:13;22.20;;;13.32;;
60169;SDS011;46042;49.444;6.862;2023-05-21T01:14:40;21.88;;;12.80;;
60169;SDS011;46042;49.444;6.862;2023-05-21T01:17:07;22.92;;;12.07;;
60169;SDS011;46042;49.444;6.862;2023-05-21T01:19:35;23.48;;;12.18;;
60169;SDS011;46042;49.444;6.862;2023-05-21T01:22:03;23.85;;;12.40;;
60169;SDS011;46042;49.444;6.862;2023-05-21T01:24:31;26.48;;;12.55;;
60169;SDS011;46042;49.444;6.862;2023-05-21T01:26:59;20.33;;;13.23;;
60169;SDS011;46042;49.444;6.862;2023-05-21T01:29:27;16.40;;;11.32;;
60169;SDS011;46042;49.444;6.862;2023-05-21T01:37:36;19.83;;;11.95;;
60169;SDS011;46042;49.444;6.862;2023-05-21T01:40:38;22.38;;;12.20;;
60169;SDS011;46042;49.444;6.862;2023-05-21T01:43:06;20.17;;;12.48;;
60169;SDS011;46042;49.444;6.862;2023-05-21T01:45:34;22.90;;;13.00;;
60169;SDS011;46042;49.444;6.862;2023-05-21T01:48:04;19.75;;;12.95;;
60169;SDS011;46042;49.444;6.862;2023-05-21T01:50:34;25.35;;;13.45;;
60169;SDS011;46042;49.444;6.862;2023-05-21T01:53:02;22.90;;;13.20;;
60169;SDS011;46042;49.444;6.862;2023-05-21T01:55:31;26.20;;;14.00;;
60169;SDS011;46042;49.444;6.862;2023-05-21T01:57:58;22.95;;;13.00;;
60169;SDS011;46042;49.444;6.862;2023-05-21T02:00:27;22.95;;;13.18;;
60169;SDS011;46042;49.444;6.862;2023-05-21T02:02:54;21.35;;;12.88;;
60169;SDS011;46042;49.444;6.862;2023-05-21T02:05:21;27.55;;;13.68;;
60169;SDS011;46042;49.444;6.862;2023-05-21T02:07:49;26.50;;;13.55;;
60169;SDS011;46042;49.444;6.862;2023-05-21T02:10:17;20.60;;;12.77;;
60169;SDS011;46042;49.444;6.862;2023-05-21T02:12:44;20.30;;;12.88;;
60169;SDS011;46042;49.444;6.862;2023-05-21T02:15:11;22.45;;;12.95;;
60169;SDS011;46042;49.444;6.862;2023-05-21T02:17:39;21.77;;;12.32;;
60169;SDS011;46042;49.444;6.862;2023-05-21T02:20:07;28.50;;;13.20;;
60169;SDS011;46042;49.444;6.862;2023-05-21T02:25:09;23.00;;;14.07;;
60169;SDS011;46042;49.444;6.862;2023-05-21T02:27:37;23.98;;;14.10;;
60169;SDS011;46042;49.444;6.862;2023-05-21T02:30:05;23.10;;;13.60;;
60169;SDS011;46042;49.444;6.862;2023-05-21T02:32:34;22.15;;;12.50;;
60169;SDS011;46042;49.444;6.862;2023-05-21T02:35:01;23.95;;;13.00;;
60169;SDS011;46042;49.444;6.862;2023-05-21T02:37:29;26.25;;;13.10;;
60169;SDS011;46042;49.444;6.862;2023-05-21T02:40:00;21.88;;;12.95;;
60169;SDS011;46042;49.444;6.862;2023-05-21T02:42:29;24.30;;;14.40;;
60169;SDS011;46042;49.444;6.862;2023-05-21T02:44:56;28.45;;;13.60;;
60169;SDS011;46042;49.444;6.862;2023-05-21T02:47:22;24.08;;;13.60;;
60169;SDS011;46042;49.444;6.862;2023-05-21T02:49:51;26.67;;;14.88;;
60169;SDS011;46042;49.444;6.862;2023-05-21T02:52:18;21.52;;;13.07;;
60169;SDS011;46042;49.444;6.862;2023-05-21T02:54:49;22.75;;;13.50;;
60169;SDS011;46042;49.444;6.862;2023-05-21T02:57:16;22.40;;;13.88;;
60169;SDS011;46042;49.444;6.862;2023-05-21T02:59:43;23.05;;;13.65;;
60169;SDS011;46042;49.444;6.862;2023-05-21T03:02:11;31.35;;;12.00;;
60169;SDS011;46042;49.444;6.862;2023-05-21T03:04:38;21.13;;;13.20;;
60169;SDS011;46042;49.444;6.862;2023-05-21T03:07:12;22.67;;;13.93;;
60169;SDS011;46042;49.444;6.862;2023-05-21T03:09:40;22.80;;;13.40;;
60169;SDS011;46042;49.444;6.862;2023-05-21T03:12:09;23.60;;;13.60;;
60169;SDS011;46042;49.444;6.862;2023-05-21T03:14:36;23.00;;;13.63;;
60169;SDS011;46042;49.444;6.862;2023-05-21T03:17:03;23.40;;;13.90;;
60169;SDS011;46042;49.444;6.862;2023-05-21T03:19:33;22.17;;;12.48;;
60169;SDS011;46042;49.444;6.862;2023-05-21T03:22:04;23.67;;;13.93;;
60169;SDS011;46042;49.444;6.862;2023-05-21T03:24:32;30.00;;;14.97;;
60169;SDS011;46042;49.444;6.862;2023-05-21T03:26:58;24.13;;;13.63;;
60169;SDS011;46042;49.444;6.862;2023-05-21T03:29:28;25.35;;;13.13;;
60169;SDS011;46042;49.444;6.862;2023-05-21T03:31:55;26.00;;;14.35;;
60169;SDS011;46042;49.444;6.862;2023-05-21T03:34:23;22.90;;;12.55;;
60169;SDS011;46042;49.444;6.862;2023-05-21T03:36:49;26.13;;;13.60;;
60169;SDS011;46042;49.444;6.862;2023-05-21T03:39:16;24.00;;;12.55;;
60169;SDS011;46042;49.444;6.862;2023-05-21T03:41:43;20.33;;;13.10;;
60169;SDS011;46042;49.444;6.862;2023-05-21T03:44:10;23.95;;;14.48;;
60169;SDS011;46042;49.444;6.862;2023-05-21T03:46:36;21.77;;;14.25;;
60169;SDS011;46042;49.444;6.862;2023-05-21T03:49:03;28.08;;;13.93;;
60169;SDS011;46042;49.444;6.862;2023-05-21T03:51:30;22.67;;;13.35;;
60169;SDS011;46042;49.444;6.862;2023-05-21T03:54:00;25.60;;;14.57;;
60169;SDS011;46042;49.444;6.862;2023-05-21T03:56:26;22.33;;;14.70;;
60169;SDS011;46042;49.444;6.862;2023-05-21T03:58:53;23.85;;;14.10;;
60169;SDS011;46042;49.444;6.862;2023-05-21T04:01:20;29.20;;;14.15;;
60169;SDS011;46042;49.444;6.862;2023-05-21T04:03:47;23.95;;;14.02;;
60169;SDS011;46042;49.444;6.862;2023-05-21T04:06:14;25.38;;;13.90;;
60169;SDS011;46042;49.444;6.862;2023-05-21T04:08:41;25.75;;;13.52;;
60169;SDS011;46042;49.444;6.862;2023-05-21T04:11:07;23.00;;;13.48;;
60169;SDS011;46042;49.444;6.862;2023-05-21T04:13:34;21.88;;;13.52;;
60169;SDS011;46042;49.444;6.862;2023-05-21T04:16:01;25.67;;;13.25;;
60169;SDS011;46042;49.444;6.862;2023-05-21T04:18:28;22.08;;;12.98;;
60169;SDS011;46042;49.444;6.862;2023-05-21T04:20:55;28.00;;;13.35;;
60169;SDS011;46042;49.444;6.862;2023-05-21T04:23:21;21.30;;;12.90;;
60169;SDS011;46042;49.444;6.862;2023-05-21T04:25:49;25.42;;;13.48;;
60169;SDS011;46042;49.444;6.862;2023-05-21T04:28:16;21.98;;;12.75;;
60169;SDS011;46042;49.444;6.862;2023-05-21T04:30:46;22.08;;;13.05;;
60169;SDS011;46042;49.444;6.862;2023-05-21T04:33:13;27.00;;;14.30;;
60169;SDS011;46042;49.444;6.862;2023-05-21T04:35:44;23.40;;;13.02;;
60169;SDS011;46042;49.444;6.862;2023-05-21T04:38:12;24.40;;;13.40;;
60169;SDS011;46042;49.444;6.862;2023-05-21T04:40:48;23.98;;;13.95;;
60169;SDS011;46042;49.444;6.862;2023-05-21T04:43:16;26.10;;;13.52;;
60169;SDS011;46042;49.444;6.862;2023-05-21T04:45:43;22.08;;;12.95;;
60169;SDS011;46042;49.444;6.862;2023-05-21T04:48:10;24.23;;;12.88;;
60169;SDS011;46042;49.444;6.862;2023-05-21T04:50:37;25.45;;;13.82;;
60169;SDS011;46042;49.444;6.862;2023-05-21T04:53:06;24.88;;;13.10;;
60169;SDS011;46042;49.444;6.862;2023-05-21T04:55:33;20.02;;;12.35;;
60169;SDS011;46042;49.444;6.862;2023-05-21T04:58:05;24.67;;;14.00;;
60169;SDS011;46042;49.444;6.862;2023-05-21T05:00:32;24.23;;;13.73;;
60169;SDS011;46042;49.444;6.862;2023-05-21T05:02:59;21.55;;;12.57;;
60169;SDS011;46042;49.444;6.862;2023-05-21T05:05:26;23.00;;;12.30;;
60169;SDS011;46042;49.444;6.862;2023-05-21T05:07:53;22.55;;;13.90;;
60169;SDS011;46042;49.444;6.862;2023-05-21T05:10:19;21.80;;;13.35;;
60169;SDS011;46042;49.444;6.862;2023-05-21T05:12:47;23.10;;;12.30;;
60169;SDS011;46042;49.444;6.862;2023-05-21T05:15:13;19.88;;;12.80;;
60169;SDS011;46042;49.444;6.862;2023-05-21T05:17:41;22.38;;;13.45;;
60169;SDS011;46042;49.444;6.862;2023-05-21T05:20:08;22.33;;;12.88;;
60169;SDS011;46042;49.444;6.862;2023-05-21T05:22:36;21.63;;;12.30;;
60169;SDS011;46042;49.444;6.862;2023-05-21T05:25:03;20.42;;;13.48;;
60169;SDS011;46042;49.444;6.862;2023-05-21T05:27:30;22.00;;;12.63;;
60169;SDS011;46042;49.444;6.862;2023-05-21T05:29:56;24.23;;;12.77;;
60169;SDS011;46042;49.444;6.862;2023-05-21T05:32:23;23.83;;;11.75;;
60169;SDS011;46042;49.444;6.862;2023-05-21T05:34:50;21.17;;;13.23;;
60169;SDS011;46042;49.444;6.862;2023-05-21T05:37:16;26.73;;;14.18;;
60169;SDS011;46042;49.444;6.862;2023-05-21T05:39:43;20.13;;;12.10;;
60169;SDS011;46042;49.444;6.862;2023-05-21T05:42:09;22.40;;;12.43;;
60169;SDS011;46042;49.444;6.862;2023-05-21T05:44:36;22.42;;;12.93;;
60169;SDS011;46042;49.444;6.862;2023-05-21T05:47:03;24.70;;;13.50;;
60169;SDS011;46042;49.444;6.862;2023-05-21T05:52:01;20.63;;;12.65;;
60169;SDS011;46042;49.444;6.862;2023-05-21T05:54:28;20.13;;;12.95;;
60169;SDS011;46042;49.444;6.862;2023-05-21T05:56:55;20.15;;;12.43;;
60169;SDS011;46042;49.444;6.862;2023-05-21T05:59:21;22.38;;;11.77;;
60169;SDS011;46042;49.444;6.862;2023-05-21T06:01:48;21.70;;;12.38;;
60169;SDS011;46042;49.444;6.862;2023-05-21T06:04:15;19.85;;;11.30;;
60169;SDS011;46042;49.444;6.862;2023-05-21T06:06:42;18.48;;;11.65;;
60169;SDS011;46042;49.444;6.862;2023-05-21T06:09:08;18.10;;;11.88;;
60169;SDS011;46042;49.444;6.862;2023-05-21T06:11:35;22.20;;;13.38;;
60169;SDS011;46042;49.444;6.862;2023-05-21T06:14:02;21.00;;;12.52;;
60169;SDS011;46042;49.444;6.862;2023-05-21T06:16:29;20.88;;;12.70;;
60169;SDS011;46042;49.444;6.862;2023-05-21T06:18:59;23.50;;;12.20;;
60169;SDS011;46042;49.444;6.862;2023-05-21T06:21:26;18.27;;;12.38;;
60169;SDS011;46042;49.444;6.862;2023-05-21T06:23:53;18.95;;;11.60;;
60169;SDS011;46042;49.444;6.862;2023-05-21T06:26:19;21.05;;;12.68;;
60169;SDS011;46042;49.444;6.862;2023-05-21T06:28:47;17.88;;;11.20;;
60169;SDS011;46042;49.444;6.862;2023-05-21T06:31:14;23.13;;;13.00;;
60169;SDS011;46042;49.444;6.862;2023-05-21T06:33:41;20.15;;;12.18;;
60169;SDS011;46042;49.444;6.862;2023-05-21T06:36:08;22.00;;;11.65;;
60169;SDS011;46042;49.444;6.862;2023-05-21T06:38:35;15.75;;;11.07;;
60169;SDS011;46042;49.444;6.862;2023-05-21T06:41:01;18.50;;;12.23;;
60169;SDS011;46042;49.444;6.862;2023-05-21T06:43:29;18.35;;;12.40;;
60169;SDS011;46042;49.444;6.862;2023-05-21T06:45:56;18.98;;;11.73;;
60169;SDS011;46042;49.444;6.862;2023-05-21T06:48:22;18.58;;;10.98;;
60169;SDS011;46042;49.444;6.862;2023-05-21T06:50:49;14.32;;;10.38;;
60169;SDS011;46042;49.444;6.862;2023-05-21T06:53:16;19.98;;;11.00;;
60169;SDS011;46042;49.444;6.862;2023-05-21T06:55:43;16.83;;;10.90;;
60169;SDS011;46042;49.444;6.862;2023-05-21T06:58:10;19.10;;;10.98;;
60169;SDS011;46042;49.444;6.862;2023-05-21T07:00:37;15.82;;;10.93;;
60169;SDS011;46042;49.444;6.862;2023-05-21T07:03:04;18.38;;;9.77;;
60169;SDS011;46042;49.444;6.862;2023-05-21T07:05:31;19.20;;;11.05;;
60169;SDS011;46042;49.444;6.862;2023-05-21T07:07:58;13.73;;;9.93;;
60169;SDS011;46042;49.444;6.862;2023-05-21T07:10:25;14.98;;;9.55;;
60169;SDS011;46042;49.444;6.862;2023-05-21T07:12:52;11.27;;;8.88;;
60169;SDS011;46042;49.444;6.862;2023-05-21T07:15:19;16.73;;;9.15;;
60169;SDS011;46042;49.444;6.862;2023-05-21T07:17:46;13.38;;;9.60;;
60169;SDS011;46042;49.444;6.862;2023-05-21T07:20:14;14.25;;;9.27;;
60169;SDS011;46042;49.444;6.862;2023-05-21T07:22:41;14.05;;;9.23;;
60169;SDS011;46042;49.444;6.862;2023-05-21T07:25:09;11.00;;;7.85;;
60169;SDS011;46042;49.444;6.862;2023-05-21T07:27:36;11.85;;;8.20;;
60169;SDS011;46042;49.444;6.862;2023-05-21T07:30:03;10.55;;;7.10;;
60169;SDS011;46042;49.444;6.862;2023-05-21T07:32:30;10.82;;;7.82;;
60169;SDS011;46042;49.444;6.862;2023-05-21T07:34:58;10.50;;;8.02;;
60169;SDS011;46042;49.444;6.862;2023-05-21T07:37:27;12.70;;;8.38;;
60169;SDS011;46042;49.444;6.862;2023-05-21T07:39:55;15.65;;;7.30;;
60169;SDS011;46042;49.444;6.862;2023-05-21T07:42:24;10.33;;;7.97;;
60169;SDS011;46042;49.444;6.862;2023-05-21T07:44:51;12.63;;;8.40;;
60169;SDS011;46042;49.444;6.862;2023-05-21T07:47:17;12.68;;;7.80;;
60169;SDS011;46042;49.444;6.862;2023-05-21T07:49:44;13.20;;;7.30;;
60169;SDS011;46042;49.444;6.862;2023-05-21T07:52:11;9.98;;;7.95;;
60169;SDS011;46042;49.444;6.862;2023-05-21T07:54:37;9.10;;;7.43;;
60169;SDS011;46042;49.444;6.862;2023-05-21T07:57:04;9.18;;;7.60;;
60169;SDS011;46042;49.444;6.862;2023-05-21T07:59:31;10.55;;;7.90;;
60169;SDS011;46042;49.444;6.862;2023-05-21T08:01:58;11.63;;;8.35;;
60169;SDS011;46042;49.444;6.862;2023-05-21T08:04:25;10.40;;;7.88;;
60169;SDS011;46042;49.444;6.862;2023-05-21T08:06:52;9.50;;;7.78;;
60169;SDS011;46042;49.444;6.862;2023-05-21T08:09:19;9.75;;;7.50;;
60169;SDS011;46042;49.444;6.862;2023-05-21T08:11:45;10.98;;;8.30;;
60169;SDS011;46042;49.444;6.862;2023-05-21T08:14:12;11.30;;;8.55;;
60169;SDS011;46042;49.444;6.862;2023-05-21T08:16:39;10.00;;;7.43;;
60169;SDS011;46042;49.444;6.862;2023-05-21T08:19:06;11.55;;;8.10;;
60169;SDS011;46042;49.444;6.862;2023-05-21T08:21:33;9.52;;;7.70;;
60169;SDS011;46042;49.444;6.862;2023-05-21T08:24:00;11.48;;;8.25;;
60169;SDS011;46042;49.444;6.862;2023-05-21T08:26:27;9.63;;;7.72;;
60169;SDS011;46042;49.444;6.862;2023-05-21T08:28:54;14.38;;;7.95;;
60169;SDS011;46042;49.444;6.862;2023-05-21T08:31:21;11.80;;;7.50;;
60169;SDS011;46042;49.444;6.862;2023-05-21T08:33:51;10.20;;;7.57;;
60169;SDS011;46042;49.444;6.862;2023-05-21T08:36:18;10.65;;;7.40;;
60169;SDS011;46042;49.444;6.862;2023-05-21T08:38:45;9.82;;;7.25;;
60169;SDS011;46042;49.444;6.862;2023-05-21T08:41:12;11.07;;;7.43;;
60169;SDS011;46042;49.444;6.862;2023-05-21T08:43:39;9.02;;;7.65;;
60169;SDS011;46042;49.444;6.862;2023-05-21T08:46:07;10.00;;;7.80;;
60169;SDS011;46042;49.444;6.862;2023-05-21T08:48:35;9.85;;;7.13;;
60169;SDS011;46042;49.444;6.862;2023-05-21T08:51:02;8.65;;;7.15;;
60169;SDS011;46042;49.444;6.862;2023-05-21T08:53:31;10.52;;;6.55;;
60169;SDS011;46042;49.444;6.862;2023-05-21T08:55:58;11.05;;;6.70;;
60169;SDS011;46042;49.444;6.862;2023-05-21T08:58:25;10.43;;;7.35;;
60169;SDS011;46042;49.444;6.862;2023-05-21T09:00:52;10.70;;;7.13;;
60169;SDS011;46042;49.444;6.862;2023-05-21T09:03:20;10.68;;;6.70;;
60169;SDS011;46042;49.444;6.862;2023-05-21T09:05:47;10.82;;;7.30;;
60169;SDS011;46042;49.444;6.862;2023-05-21T09:08:18;9.48;;;7.13;;
60169;SDS011;46042;49.444;6.862;2023-05-21T09:10:50;9.98;;;6.90;;
60169;SDS011;46042;49.444;6.862;2023-05-21T09:13:18;9.10;;;7.07;;
60169;SDS011;46042;49.444;6.862;2023-05-21T09:15:45;8.93;;;7.32;;
60169;SDS011;46042;49.444;6.862;2023-05-21T09:18:13;9.15;;;7.30;;
60169;SDS011;46042;49.444;6.862;2023-05-21T09:20:40;8.00;;;6.70;;
60169;SDS011;46042;49.444;6.862;2023-05-21T09:23:07;13.00;;;8.00;;
60169;SDS011;46042;49.444;6.862;2023-05-21T09:25:46;9.32;;;7.30;;
60169;SDS011;46042;49.444;6.862;2023-05-21T09:28:14;9.25;;;7.50;;
60169;SDS011;46042;49.444;6.862;2023-05-21T09:30:45;9.15;;;7.28;;
60169;SDS011;46042;49.444;6.862;2023-05-21T09:33:28;9.18;;;6.95;;
60169;SDS011;46042;49.444;6.862;2023-05-21T09:35:55;9.75;;;6.78;;
60169;SDS011;46042;49.444;6.862;2023-05-21T09:38:22;11.23;;;6.90;;
60169;SDS011;46042;49.444;6.862;2023-05-21T09:40:50;9.45;;;6.75;;
60169;SDS011;46042;49.444;6.862;2023-05-21T09:43:20;11.75;;;7.22;;
60169;SDS011;46042;49.444;6.862;2023-05-21T09:45:53;9.48;;;6.72;;
60169;SDS011;46042;49.444;6.862;2023-05-21T09:51:15;9.23;;;7.00;;
60169;SDS011;46042;49.444;6.862;2023-05-21T09:53:53;12.85;;;7.15;;
60169;SDS011;46042;49.444;6.862;2023-05-21T09:56:27;9.33;;;8.33;;
60169;SDS011;46042;49.444;6.862;2023-05-21T09:59:01;9.88;;;7.35;;
60169;SDS011;46042;49.444;6.862;2023-05-21T10:01:32;9.07;;;6.82;;
60169;SDS011;46042;49.444;6.862;2023-05-21T10:04:00;10.07;;;6.95;;
60169;SDS011;46042;49.444;6.862;2023-05-21T10:06:29;9.85;;;7.22;;
60169;SDS011;46042;49.444;6.862;2023-05-21T10:08:58;9.15;;;6.47;;
60169;SDS011;46042;49.444;6.862;2023-05-21T10:11:30;7.82;;;6.63;;
60169;SDS011;46042;49.444;6.862;2023-05-21T10:14:04;8.10;;;7.00;;
60169;SDS011;46042;49.444;6.862;2023-05-21T10:16:35;10.35;;;6.68;;
60169;SDS011;46042;49.444;6.862;2023-05-21T10:19:02;12.13;;;6.97;;
60169;SDS011;46042;49.444;6.862;2023-05-21T10:21:31;8.25;;;6.57;;
60169;SDS011;46042;49.444;6.862;2023-05-21T10:23:58;9.07;;;6.35;;
60169;SDS011;46042;49.444;6.862;2023-05-21T10:26:27;10.23;;;6.50;;
60169;SDS011;46042;49.444;6.862;2023-05-21T10:28:55;7.80;;;6.72;;
60169;SDS011;46042;49.444;6.862;2023-05-21T10:33:53;8.57;;;6.35;;
60169;SDS011;46042;49.444;6.862;2023-05-21T10:36:20;8.82;;;6.53;;
60169;SDS011;46042;49.444;6.862;2023-05-21T10:38:49;8.85;;;7.10;;
60169;SDS011;46042;49.444;6.862;2023-05-21T10:41:16;10.20;;;6.88;;
60169;SDS011;46042;49.444;6.862;2023-05-21T10:43:50;7.93;;;6.60;;
60169;SDS011;46042;49.444;6.862;2023-05-21T10:50:24;11.50;;;7.30;;
60169;SDS011;46042;49.444;6.862;2023-05-21T10:55:28;8.93;;;7.15;;
60169;SDS011;46042;49.444;6.862;2023-05-21T11:01:11;9.20;;;7.30;;
60169;SDS011;46042;49.444;6.862;2023-05-21T11:03:40;9.10;;;6.70;;
60169;SDS011;46042;49.444;6.862;2023-05-21T11:06:09;9.10;;;7.05;;
60169;SDS011;46042;49.444;6.862;2023-05-21T11:08:37;10.73;;;6.75;;
60169;SDS011;46042;49.444;6.862;2023-05-21T11:11:04;9.70;;;6.75;;
60169;SDS011;46042;49.444;6.862;2023-05-21T11:13:46;12.98;;;8.13;;
60169;SDS011;46042;49.444;6.862;2023-05-21T11:16:17;9.07;;;6.60;;
60169;SDS011;46042;49.444;6.862;2023-05-21T11:21:12;7.57;;;6.63;;
60169;SDS011;46042;49.444;6.862;2023-05-21T11:26:21;11.85;;;6.55;;
60169;SDS011;46042;49.444;6.862;2023-05-21T11:28:49;11.15;;;7.10;;
60169;SDS011;46042;49.444;6.862;2023-05-21T11:31:36;8.90;;;7.47;;
60169;SDS011;46042;49.444;6.862;2023-05-21T11:34:14;9.80;;;7.35;;
60169;SDS011;46042;49.444;6.862;2023-05-21T11:36:47;8.30;;;7.20;;
60169;SDS011;46042;49.444;6.862;2023-05-21T11:39:15;9.75;;;7.68;;
60169;SDS011;46042;49.444;6.862;2023-05-21T11:41:50;9.13;;;6.95;;
60169;SDS011;46042;49.444;6.862;2023-05-21T11:44:36;12.00;;;7.55;;
60169;SDS011;46042;49.444;6.862;2023-05-21T11:47:10;9.65;;;6.88;;
60169;SDS011;46042;49.444;6.862;2023-05-21T11:52:07;9.80;;;6.97;;
60169;SDS011;46042;49.444;6.862;2023-05-21T11:54:39;12.30;;;6.85;;
60169;SDS011;46042;49.444;6.862;2023-05-21T11:57:09;9.55;;;7.18;;
60169;SDS011;46042;49.444;6.862;2023-05-21T11:59:36;10.88;;;7.43;;
60169;SDS011;46042;49.444;6.862;2023-05-21T12:02:03;10.35;;;7.10;;
60169;SDS011;46042;49.444;6.862;2023-05-21T12:04:30;8.63;;;7.63;;
60169;SDS011;46042;49.444;6.862;2023-05-21T12:07:09;10.82;;;7.28;;
60169;SDS011;46042;49.444;6.862;2023-05-21T12:09:46;11.07;;;7.88;;
60169;SDS011;46042;49.444;6.862;2023-05-21T12:12:15;10.45;;;7.38;;
60169;SDS011;46042;49.444;6.862;2023-05-21T12:14:47;14.40;;;7.25;;
60169;SDS011;46042;49.444;6.862;2023-05-21T12:17:19;8.60;;;6.97;;
60169;SDS011;46042;49.444;6.862;2023-05-21T12:19:51;11.52;;;7.43;;
60169;SDS011;46042;49.444;6.862;2023-05-21T12:22:19;11.63;;;7.38;;
60169;SDS011;46042;49.444;6.862;2023-05-21T12:24:46;8.30;;;7.38;;
60169;SDS011;46042;49.444;6.862;2023-05-21T12:27:16;10.25;;;7.63;;
60169;SDS011;46042;49.444;6.862;2023-05-21T12:29:44;8.95;;;7.63;;
60169;SDS011;46042;49.444;6.862;2023-05-21T12:32:13;12.02;;;7.90;;
60169;SDS011;46042;49.444;6.862;2023-05-21T12:34:41;10.68;;;7.68;;
60169;SDS011;46042;49.444;6.862;2023-05-21T12:37:18;9.73;;;7.30;;
60169;SDS011;46042;49.444;6.862;2023-05-21T12:39:51;8.95;;;6.60;;
60169;SDS011;46042;49.444;6.862;2023-05-21T12:42:23;10.57;;;7.25;;
60169;SDS011;46042;49.444;6.862;2023-05-21T12:45:08;9.50;;;7.50;;
60169;SDS011;46042;49.444;6.862;2023-05-21T12:47:36;10.13;;;7.78;;
60169;SDS011;46042;49.444;6.862;2023-05-21T12:50:03;10.90;;;7.85;;
60169;SDS011;46042;49.444;6.862;2023-05-21T12:52:34;11.63;;;7.28;;
60169;SDS011;46042;49.444;6.862;2023-05-21T12:55:01;7.93;;;7.13;;
60169;SDS011;46042;49.444;6.862;2023-05-21T12:57:36;7.93;;;7.13;;
60169;SDS011;46042;49.444;6.862;2023-05-21T13:00:05;7.78;;;6.78;;
60169;SDS011;46042;49.444;6.862;2023-05-21T13:02:34;8.65;;;6.55;;
60169;SDS011;46042;49.444;6.862;2023-05-21T13:05:14;11.23;;;7.03;;
60169;SDS011;46042;49.444;6.862;2023-05-21T13:07:43;8.25;;;6.75;;
60169;SDS011;46042;49.444;6.862;2023-05-21T13:10:13;12.18;;;6.53;;
60169;SDS011;46042;49.444;6.862;2023-05-21T13:12:42;9.48;;;6.68;;
60169;SDS011;46042;49.444;6.862;2023-05-21T13:15:10;7.68;;;6.60;;
60169;SDS011;46042;49.444;6.862;2023-05-21T13:17:37;9.30;;;6.97;;
60169;SDS011;46042;49.444;6.862;2023-05-21T13:22:46;9.95;;;6.78;;
60169;SDS011;46042;49.444;6.862;2023-05-21T13:25:15;7.53;;;6.57;;
60169;SDS011;46042;49.444;6.862;2023-05-21T13:27:43;11.98;;;6.95;;
60169;SDS011;46042;49.444;6.862;2023-05-21T13:30:10;9.35;;;6.63;;
60169;SDS011;46042;49.444;6.862;2023-05-21T13:32:38;7.35;;;6.28;;
60169;SDS011;46042;49.444;6.862;2023-05-21T13:35:06;7.05;;;6.20;;
60169;SDS011;46042;49.444;6.862;2023-05-21T13:37:33;10.23;;;7.25;;
60169;SDS011;46042;49.444;6.862;2023-05-21T13:40:04;8.35;;;6.80;;
60169;SDS011;46042;49.444;6.862;2023-05-21T13:42:32;7.78;;;6.57;;
60169;SDS011;46042;49.444;6.862;2023-05-21T13:45:00;9.48;;;7.18;;
60169;SDS011;46042;49.444;6.862;2023-05-21T13:47:27;10.23;;;7.18;;
60169;SDS011;46042;49.444;6.862;2023-05-21T13:49:54;9.07;;;7.30;;
60169;SDS011;46042;49.444;6.862;2023-05-21T13:52:20;7.72;;;6.93;;
60169;SDS011;46042;49.444;6.862;2023-05-21T13:54:47;10.02;;;6.93;;
60169;SDS011;46042;49.444;6.862;2023-05-21T13:57:14;9.10;;;6.65;;
60169;SDS011;46042;49.444;6.862;2023-05-21T13:59:41;7.85;;;7.05;;
60169;SDS011;46042;49.444;6.862;2023-05-21T14:02:08;9.23;;;6.97;;
60169;SDS011;46042;49.444;6.862;2023-05-21T14:04:35;11.30;;;6.93;;
60169;SDS011;46042;49.444;6.862;2023-05-21T14:07:05;11.18;;;6.82;;
60169;SDS011;46042;49.444;6.862;2023-05-21T14:09:32;10.35;;;8.15;;
60169;SDS011;46042;49.444;6.862;2023-05-21T14:11:59;10.60;;;7.40;;
60169;SDS011;46042;49.444;6.862;2023-05-21T14:14:26;8.13;;;6.97;;
60169;SDS011;46042;49.444;6.862;2023-05-21T14:16:53;10.13;;;7.40;;
60169;SDS011;46042;49.444;6.862;2023-05-21T14:19:20;8.20;;;6.88;;
60169;SDS011;46042;49.444;6.862;2023-05-21T14:21:47;10.88;;;7.50;;
60169;SDS011;46042;49.444;6.862;2023-05-21T14:24:13;10.75;;;6.57;;
60169;SDS011;46042;49.444;6.862;2023-05-21T14:26:40;11.45;;;6.50;;
60169;SDS011;46042;49.444;6.862;2023-05-21T14:29:07;9.35;;;6.45;;
60169;SDS011;46042;49.444;6.862;2023-05-21T14:31:34;8.13;;;6.75;;
60169;SDS011;46042;49.444;6.862;2023-05-21T14:34:01;8.30;;;6.70;;
60169;SDS011;46042;49.444;6.862;2023-05-21T14:36:28;12.93;;;7.22;;
60169;SDS011;46042;49.444;6.862;2023-05-21T14:38:56;16.23;;;6.35;;
60169;SDS011;46042;49.444;6.862;2023-05-21T14:41:23;7.50;;;6.32;;
60169;SDS011;46042;49.444;6.862;2023-05-21T14:43:52;7.68;;;6.03;;
60169;SDS011;46042;49.444;6.862;2023-05-21T14:46:18;7.10;;;5.90;;
60169;SDS011;46042;49.444;6.862;2023-05-21T14:48:45;9.65;;;5.90;;
60169;SDS011;46042;49.444;6.862;2023-05-21T14:51:12;7.65;;;6.65;;
60169;SDS011;46042;49.444;6.862;2023-05-21T14:53:39;7.72;;;6.65;;
60169;SDS011;46042;49.444;6.862;2023-05-21T14:56:06;11.65;;;6.22;;
60169;SDS011;46042;49.444;6.862;2023-05-21T14:58:33;8.25;;;6.10;;
60169;SDS011;46042;49.444;6.862;2023-05-21T15:01:00;8.68;;;6.40;;
60169;SDS011;46042;49.444;6.862;2023-05-21T15:03:29;7.50;;;6.13;;
60169;SDS011;46042;49.444;6.862;2023-05-21T15:05:56;13.80;;;6.70;;
60169;SDS011;46042;49.444;6.862;2023-05-21T15:08:23;9.93;;;6.07;;
60169;SDS011;46042;49.444;6.862;2023-05-21T15:10:50;7.43;;;6.63;;
60169;SDS011;46042;49.444;6.862;2023-05-21T15:13:17;7.85;;;6.10;;